Time;durP1;ratioP1;P1;durP2;ratioP2;P2;SDS_P1;SDS_P2;PMS_P1;PMS_P2;Temp;Humidity;BMP_temperature;BMP_pressure;BME280_temperature;BME280_humidity;BME280_pressure;Samples;Min_cycle;Max_cycle;Signal;HPM_P1;HPM_P2
2023/09/19 00:00:35;;;;;;;12.30;11.00;;;21.00;55.60;;;;;;5027110;28;114626;-77
2023/09/19 00:03:04;;;;;;;13.55;12.15;;;20.90;55.80;;;;;;5027861;28;114126;-77
2023/09/19 00:05:34;;;;;;;13.18;11.77;;;20.90;55.90;;;;;;4993616;28;114477;-78
2023/09/19 00:08:04;;;;;;;13.52;12.10;;;20.90;56.00;;;;;;4992454;28;115046;-78
2023/09/19 00:10:34;;;;;;;11.93;10.73;;;20.90;56.10;;;;;;5026862;28;114714;-78
2023/09/19 00:13:05;;;;;;;12.93;11.35;;;20.80;56.20;;;;;;5009742;28;114207;-78
2023/09/19 00:15:37;;;;;;;13.63;11.75;;;20.90;56.20;;;;;;5009875;28;114330;-78
2023/09/19 00:18:08;;;;;;;14.73;12.02;;;20.90;56.40;;;;;;4992096;28;115040;-79
2023/09/19 00:20:36;;;;;;;11.82;10.63;;;20.90;56.30;;;;;;5009145;28;114760;-79
2023/09/19 00:23:04;;;;;;;16.83;13.20;;;20.90;56.30;;;;;;5027539;28;114044;-77
2023/09/19 00:25:35;;;;;;;15.10;12.73;;;21.00;56.30;;;;;;5009971;28;114274;-76
2023/09/19 00:28:03;;;;;;;13.15;11.77;;;21.00;56.30;;;;;;5025945;27;114879;-79
2023/09/19 00:30:30;;;;;;;15.48;12.23;;;21.00;56.30;;;;;;5008078;28;116642;-76
2023/09/19 00:32:58;;;;;;;14.50;11.52;;;21.20;56.20;;;;;;5027502;28;114276;-77
2023/09/19 00:35:25;;;;;;;17.05;12.25;;;21.20;55.90;;;;;;5009210;28;114192;-78
2023/09/19 00:37:52;;;;;;;13.90;12.35;;;21.30;56.10;;;;;;5008170;28;114963;-78
2023/09/19 00:40:21;;;;;;;14.52;11.90;;;21.30;56.10;;;;;;5026755;28;115145;-79
2023/09/19 00:42:49;;;;;;;16.33;11.63;;;21.30;56.20;;;;;;5027706;28;114097;-78
2023/09/19 00:45:17;;;;;;;14.45;12.52;;;21.30;56.10;;;;;;5027894;28;114240;-78
2023/09/19 00:47:46;;;;;;;15.52;12.07;;;21.30;56.20;;;;;;5008405;28;114886;-78
2023/09/19 00:50:14;;;;;;;17.23;11.80;;;21.30;56.30;;;;;;5026370;28;114736;-78
2023/09/19 00:52:42;;;;;;;12.23;10.98;;;21.30;56.40;;;;;;4993062;28;114176;-77
2023/09/19 00:55:10;;;;;;;15.48;12.32;;;21.20;56.10;;;;;;5027123;28;114788;-77
2023/09/19 00:57:38;;;;;;;18.80;12.70;;;21.20;56.60;;;;;;4991567;28;114918;-77
2023/09/19 01:00:07;;;;;;;15.90;12.90;;;21.20;56.60;;;;;;5025679;28;114688;-77
2023/09/19 01:02:35;;;;;;;15.15;13.00;;;21.20;56.80;;;;;;5026142;28;114030;-77
2023/09/19 01:05:04;;;;;;;13.85;12.15;;;21.20;56.40;;;;;;4992297;28;114005;-77
2023/09/19 01:07:31;;;;;;;17.25;13.18;;;21.30;56.20;;;;;;5007469;28;115007;-77
2023/09/19 01:09:59;;;;;;;19.67;14.68;;;21.30;56.20;;;;;;4990599;28;115458;-77
2023/09/19 01:12:44;;;;;;;23.70;14.88;;;21.30;56.40;;;;;;5007726;28;114467;-77
2023/09/19 01:15:28;;;;;;;16.00;12.32;;;21.50;56.20;;;;;;5026458;28;114229;-77
2023/09/19 01:18:02;;;;;;;14.25;11.85;;;21.50;55.40;;;;;;4990137;28;116887;-76
2023/09/19 01:20:47;;;;;;;15.52;11.57;;;21.60;54.90;;;;;;4992087;28;115142;-77
2023/09/19 01:23:39;;;;;;;12.52;10.90;;;21.70;54.60;;;;;;5008430;28;114574;-77
2023/09/19 01:26:25;;;;;;;15.68;11.45;;;21.80;54.70;;;;;;5011252;28;114454;-78
2023/09/19 01:29:01;;;;;;;13.10;11.30;;;22.00;54.10;;;;;;5024692;28;115517;-77
2023/09/19 01:31:29;;;;;;;12.63;11.13;;;22.00;53.80;;;;;;4990980;28;115234;-77
2023/09/19 01:33:59;;;;;;;14.25;11.70;;;22.10;53.90;;;;;;5008333;28;114168;-77
2023/09/19 01:36:36;;;;;;;13.82;11.85;;;22.20;53.50;;;;;;4990891;28;114334;-77
2023/09/19 01:39:10;;;;;;;13.23;11.18;;;22.30;53.30;;;;;;4991217;28;114852;-78
2023/09/19 01:42:00;;;;;;;12.15;10.73;;;22.30;53.10;;;;;;4977914;28;114606;-77
2023/09/19 01:44:47;;;;;;;14.50;12.00;;;22.30;52.80;;;;;;4998433;28;114223;-77
2023/09/19 01:47:29;;;;;;;15.52;13.38;;;22.40;53.00;;;;;;5013243;28;114556;-78
2023/09/19 01:50:18;;;;;;;12.55;11.07;;;22.40;54.80;;;;;;5010712;28;115059;-78
2023/09/19 01:53:09;;;;;;;12.75;11.20;;;22.30;53.20;;;;;;5010799;28;114673;-77
2023/09/19 01:55:43;;;;;;;14.77;12.07;;;22.30;53.30;;;;;;5011724;28;114346;-78
2023/09/19 01:58:29;;;;;;;;;;;22.30;53.60;;;;;;4995600;28;114292;-79
2023/09/19 02:00:56;;;;;;;12.68;11.07;;;22.20;53.60;;;;;;5010629;28;114992;-78
2023/09/19 02:03:23;;;;;;;14.50;12.68;;;22.00;54.60;;;;;;4977309;28;116007;-78
2023/09/19 02:05:51;;;;;;;13.55;12.13;;;22.10;55.30;;;;;;4995391;28;114264;-79
2023/09/19 02:08:19;;;;;;;13.43;12.07;;;22.10;55.60;;;;;;5029461;28;114253;-78
2023/09/19 02:10:48;;;;;;;19.02;15.20;;;22.10;54.30;;;;;;4977776;28;114900;-79
2023/09/19 02:13:17;;;;;;;13.70;11.85;;;22.10;56.70;;;;;;4994480;28;114775;-79
2023/09/19 02:15:44;;;;;;;18.05;16.15;;;22.10;54.60;;;;;;5011530;28;114116;-78
2023/09/19 02:18:11;;;;;;;16.15;12.18;;;22.10;58.00;;;;;;5011167;28;114388;-79
2023/09/19 02:20:39;;;;;;;14.25;12.75;;;22.10;55.60;;;;;;5009260;28;115281;-79
2023/09/19 02:23:06;;;;;;;12.95;11.63;;;22.00;55.80;;;;;;5028310;28;114630;-76
2023/09/19 02:25:35;;;;;;;14.25;11.48;;;22.00;55.00;;;;;;5011219;28;114136;-78
2023/09/19 02:28:02;;;;;;;16.65;14.90;;;22.10;55.00;;;;;;5011566;28;114236;-77
2023/09/19 02:30:30;;;;;;;18.27;15.18;;;22.10;57.80;;;;;;5028249;28;115059;-76
2023/09/19 02:32:57;;;;;;;17.10;15.30;;;22.10;59.10;;;;;;4993989;28;115004;-78
2023/09/19 02:35:25;;;;;;;19.63;17.48;;;22.00;59.20;;;;;;5010762;28;114311;-78
2023/09/19 02:37:52;;;;;;;17.92;15.95;;;21.90;60.00;;;;;;5028212;28;114338;-78
2023/09/19 02:40:19;;;;;;;15.73;14.13;;;21.90;60.20;;;;;;5027866;28;116323;-78
2023/09/19 02:42:49;;;;;;;20.17;18.08;;;21.80;58.50;;;;;;5028071;28;115823;-78
2023/09/19 02:45:19;;;;;;;19.42;17.52;;;21.70;60.80;;;;;;5010494;28;115446;-77
2023/09/19 02:47:47;;;;;;;17.23;15.55;;;21.40;61.40;;;;;;5011058;28;114141;-77
2023/09/19 02:50:15;;;;;;;19.85;17.88;;;21.30;61.30;;;;;;5028510;28;114889;-77
2023/09/19 02:52:43;;;;;;;19.58;17.40;;;21.20;62.00;;;;;;5009595;28;114502;-77
2023/09/19 02:55:17;;;;;;;16.15;14.45;;;21.20;62.00;;;;;;4994986;28;114270;-77
2023/09/19 02:57:49;;;;;;;16.95;15.23;;;21.20;60.10;;;;;;4994829;28;114195;-77
2023/09/19 03:00:20;;;;;;;13.93;12.52;;;21.40;60.30;;;;;;5010906;28;115381;-78
2023/09/19 03:02:52;;;;;;;14.75;13.35;;;21.40;58.70;;;;;;5028711;28;114869;-78
2023/09/19 03:05:20;;;;;;;20.45;16.40;;;21.50;58.30;;;;;;5011698;28;114394;-77
2023/09/19 03:07:51;;;;;;;17.52;14.68;;;21.50;59.70;;;;;;5010974;28;114359;-78
2023/09/19 03:10:20;;;;;;;15.10;13.50;;;21.70;58.90;;;;;;5009763;28;114876;-78
2023/09/19 03:12:47;;;;;;;23.00;18.00;;;21.70;58.20;;;;;;4977369;28;114766;-78
2023/09/19 03:15:15;;;;;;;16.35;13.52;;;21.70;60.20;;;;;;4994589;28;114277;-78
2023/09/19 03:17:44;;;;;;;16.10;13.23;;;21.70;58.30;;;;;;4994250;28;114488;-77
2023/09/19 03:20:13;;;;;;;14.40;12.90;;;21.70;57.50;;;;;;4992927;28;114885;-78
2023/09/19 03:22:41;;;;;;;17.02;15.23;;;21.80;57.80;;;;;;5009145;28;114538;-77
2023/09/19 03:25:11;;;;;;;14.90;13.40;;;21.80;58.20;;;;;;5010151;28;114340;-79
2023/09/19 03:27:40;;;;;;;18.77;16.77;;;21.80;57.20;;;;;;5011169;28;114289;-77
2023/09/19 03:30:08;;;;;;;18.30;16.40;;;21.90;58.80;;;;;;5028209;28;114804;-77
2023/09/19 03:32:36;;;;;;;21.00;19.00;;;21.90;57.70;;;;;;5009835;28;114647;-78
2023/09/19 03:35:06;;;;;;;23.95;20.52;;;21.90;58.70;;;;;;5028268;28;114100;-78
2023/09/19 03:37:34;;;;;;;18.83;15.35;;;21.80;60.00;;;;;;4978438;28;114127;-79
2023/09/19 03:40:04;;;;;;;20.63;18.00;;;21.90;58.70;;;;;;5009411;28;115409;-78
2023/09/19 03:42:32;;;;;;;19.33;16.17;;;21.90;59.50;;;;;;5009482;28;114662;-78
2023/09/19 03:45:04;;;;;;;16.45;14.15;;;21.80;58.70;;;;;;4993460;28;114491;-77
2023/09/19 03:47:31;;;;;;;16.05;14.30;;;21.90;57.80;;;;;;5010771;28;114235;-78
2023/09/19 03:50:00;;;;;;;17.17;15.40;;;21.90;57.80;;;;;;5008816;28;114923;-78
2023/09/19 03:52:27;;;;;;;24.42;21.92;;;21.90;58.10;;;;;;5009039;28;114724;-78
2023/09/19 03:54:54;;;;;;;21.75;19.60;;;21.90;60.70;;;;;;5027308;28;114200;-78
2023/09/19 03:57:21;;;;;;;23.15;20.77;;;21.90;60.50;;;;;;5027849;28;114159;-77
2023/09/19 03:59:49;;;;;;;23.35;20.85;;;21.80;60.90;;;;;;4991665;28;115164;-77
2023/09/19 04:02:22;;;;;;;23.85;19.73;;;21.70;61.70;;;;;;5008651;27;115230;-77
2023/09/19 04:04:50;;;;;;;22.45;19.33;;;21.40;61.80;;;;;;5009159;28;114261;-77
2023/09/19 04:07:22;;;;;;;26.60;22.50;;;21.30;61.70;;;;;;5027469;28;114357;-78
2023/09/19 04:09:50;;;;;;;21.65;19.30;;;21.30;63.50;;;;;;5009531;28;114809;-78
2023/09/19 04:12:17;;;;;;;24.25;21.77;;;21.30;63.60;;;;;;5026516;28;115006;-78
2023/09/19 04:14:46;;;;;;;20.02;17.92;;;21.00;65.00;;;;;;5009341;28;114342;-78
2023/09/19 04:17:13;;;;;;;22.05;19.73;;;20.70;65.40;;;;;;4975237;28;114562;-78
2023/09/19 04:19:41;;;;;;;23.25;20.85;;;20.60;65.80;;;;;;4991795;28;115635;-78
2023/09/19 04:22:09;;;;;;;23.10;20.58;;;20.50;65.60;;;;;;5008083;28;114895;-78
2023/09/19 04:24:37;;;;;;;20.77;18.55;;;20.50;65.70;;;;;;4992906;28;114423;-78
2023/09/19 04:27:05;;;;;;;25.48;21.27;;;20.30;66.10;;;;;;5009606;28;114428;-78
2023/09/19 04:29:32;;;;;;;23.35;21.00;;;20.20;67.20;;;;;;4991366;28;116123;-78
2023/09/19 04:31:59;;;;;;;23.42;18.75;;;20.10;66.90;;;;;;5026389;28;115053;-78
2023/09/19 04:34:27;;;;;;;24.23;20.20;;;20.00;66.10;;;;;;5027137;28;114311;-79
2023/09/19 04:36:56;;;;;;;18.50;16.60;;;20.00;66.30;;;;;;5009681;28;114349;-78
2023/09/19 04:39:26;;;;;;;18.42;16.55;;;20.30;64.20;;;;;;5028346;28;114925;-78
2023/09/19 04:41:53;;;;;;;20.83;17.20;;;20.50;63.30;;;;;;5027358;28;114634;-79
2023/09/19 04:44:20;;;;;;;17.35;15.55;;;20.70;63.10;;;;;;5027464;28;114468;-78
2023/09/19 04:46:47;;;;;;;19.50;16.58;;;20.80;62.00;;;;;;4992579;28;114471;-77
2023/09/19 04:49:15;;;;;;;27.58;22.75;;;21.00;62.00;;;;;;5026237;28;114906;-78
2023/09/19 04:51:42;;;;;;;18.52;15.90;;;21.10;64.00;;;;;;5009262;28;114659;-79
2023/09/19 04:54:09;;;;;;;21.25;18.95;;;21.10;62.00;;;;;;5008615;28;114313;-77
2023/09/19 04:56:40;;;;;;;27.77;24.77;;;21.20;63.50;;;;;;4992233;28;114280;-77
2023/09/19 04:59:07;;;;;;;16.75;14.93;;;21.30;64.90;;;;;;5025890;28;115042;-77
2023/09/19 05:01:34;;;;;;;23.25;20.88;;;21.20;61.70;;;;;;5026209;28;115303;-79
2023/09/19 05:04:02;;;;;;;19.77;17.77;;;21.20;63.10;;;;;;5027211;28;114365;-78
2023/09/19 05:06:29;;;;;;;19.27;16.70;;;21.20;62.40;;;;;;5027871;28;114439;-78
2023/09/19 05:08:56;;;;;;;18.73;15.38;;;21.30;61.70;;;;;;5024623;28;115059;-78
2023/09/19 05:11:24;;;;;;;16.30;14.68;;;21.30;60.80;;;;;;5025550;28;114928;-78
2023/09/19 05:13:52;;;;;;;16.75;14.60;;;21.40;60.40;;;;;;5025988;27;114336;-77
2023/09/19 05:16:20;;;;;;;19.83;17.77;;;21.50;60.00;;;;;;5008550;28;114067;-77
2023/09/19 05:18:47;;;;;;;19.58;17.20;;;21.60;61.90;;;;;;5026271;28;114846;-79
2023/09/19 05:21:14;;;;;;;21.35;19.15;;;21.60;61.20;;;;;;5025687;28;114694;-79
2023/09/19 05:23:42;;;;;;;18.73;16.77;;;21.60;61.80;;;;;;5026308;28;114111;-77
2023/09/19 05:26:10;;;;;;;18.45;16.10;;;21.70;61.10;;;;;;5026435;28;114067;-78
2023/09/19 05:28:37;;;;;;;18.23;16.38;;;21.70;61.60;;;;;;5025553;28;114975;-78
2023/09/19 05:31:07;;;;;;;18.85;17.02;;;21.60;61.10;;;;;;5025827;28;114574;-79
2023/09/19 05:33:35;;;;;;;16.33;14.70;;;21.60;61.80;;;;;;5025464;28;114413;-79
2023/09/19 05:36:02;;;;;;;17.42;15.60;;;21.60;60.60;;;;;;4990713;28;114384;-78
2023/09/19 05:38:29;;;;;;;21.00;17.42;;;21.50;61.50;;;;;;5006747;28;114822;-79
2023/09/19 05:40:56;;;;;;;17.60;15.75;;;21.50;62.80;;;;;;4990970;28;114707;-78
2023/09/19 05:43:24;;;;;;;17.20;14.85;;;21.30;61.70;;;;;;5008306;28;114212;-78
2023/09/19 05:45:51;;;;;;;16.45;14.68;;;21.40;61.10;;;;;;5026847;28;114345;-77
2023/09/19 05:48:20;;;;;;;15.77;13.52;;;21.40;61.40;;;;;;5025953;28;114955;-78
2023/09/19 05:50:50;;;;;;;16.83;14.63;;;21.40;60.70;;;;;;5025250;28;114665;-77
2023/09/19 05:53:18;;;;;;;15.70;14.20;;;21.50;61.70;;;;;;5008582;28;114345;-76
2023/09/19 05:55:45;;;;;;;18.83;14.10;;;21.50;61.10;;;;;;4991121;28;114420;-79
2023/09/19 05:58:17;;;;;;;16.67;14.95;;;21.50;60.40;;;;;;5025427;28;115212;-78
2023/09/19 06:00:47;;;;;;;15.70;14.02;;;21.50;61.80;;;;;;5025369;28;114678;-79
2023/09/19 06:03:14;;;;;;;14.38;12.88;;;21.60;61.20;;;;;;5007348;28;114583;-78
2023/09/19 06:05:41;;;;;;;14.90;13.45;;;21.50;60.10;;;;;;5025912;28;114338;-78
2023/09/19 06:08:09;;;;;;;17.08;15.27;;;21.60;60.40;;;;;;5024989;28;114608;-79
2023/09/19 06:10:36;;;;;;;14.73;12.32;;;21.60;61.50;;;;;;5007011;28;114981;-79
2023/09/19 06:13:09;;;;;;;14.93;13.25;;;21.60;60.00;;;;;;5007472;28;114212;-78
2023/09/19 06:15:37;;;;;;;15.48;13.98;;;21.70;59.70;;;;;;5008691;28;114161;-78
2023/09/19 06:18:04;;;;;;;15.02;13.48;;;21.70;60.80;;;;;;5006334;28;115194;-79
2023/09/19 06:20:33;;;;;;;14.00;12.55;;;21.70;59.70;;;;;;5024745;28;115124;-79
2023/09/19 06:23:02;;;;;;;14.00;12.48;;;21.70;60.70;;;;;;5025890;28;114132;-78
2023/09/19 06:25:29;;;;;;;14.63;11.82;;;21.70;60.00;;;;;;5024437;27;114632;-79
2023/09/19 06:27:56;;;;;;;13.70;12.05;;;21.70;59.80;;;;;;5009008;28;114990;-78
2023/09/19 06:30:24;;;;;;;14.88;13.32;;;21.70;60.30;;;;;;5010181;28;114798;-79
2023/09/19 06:32:58;;;;;;;14.02;12.57;;;21.70;62.00;;;;;;5029024;28;114241;-79
2023/09/19 06:35:26;;;;;;;;;;;21.70;60.50;;;;;;5012084;28;114303;-79
2023/09/19 06:37:53;;;;;;;16.02;13.73;;;21.50;60.30;;;;;;5010562;28;115489;-78
2023/09/19 06:40:21;;;;;;;14.98;12.98;;;21.50;61.80;;;;;;5028451;28;114625;-79
2023/09/19 06:42:50;;;;;;;14.82;11.73;;;21.50;61.30;;;;;;5028554;28;114145;-78
2023/09/19 06:45:18;;;;;;;13.85;11.30;;;21.50;60.90;;;;;;4994756;28;114306;-78
2023/09/19 06:47:50;;;;;;;12.63;10.68;;;21.50;60.40;;;;;;5009836;28;115005;-79
2023/09/19 06:50:19;;;;;;;10.23;9.10;;;21.50;60.20;;;;;;4993844;28;114598;-76
2023/09/19 06:52:49;;;;;;;8.95;7.95;;;21.50;60.90;;;;;;4993872;28;114276;-79
2023/09/19 06:55:19;;;;;;;9.40;8.45;;;21.40;61.10;;;;;;5028650;28;114267;-78
2023/09/19 06:57:46;;;;;;;11.95;9.23;;;21.40;60.70;;;;;;5010041;28;115472;-79
2023/09/19 07:00:21;;;;;;;11.43;10.25;;;21.30;60.40;;;;;;5027720;28;114936;-79
2023/09/19 07:03:00;;;;;;;10.23;9.13;;;21.30;60.30;;;;;;5011735;28;114174;-80
2023/09/19 07:05:28;;;;;;;9.80;7.38;;;21.40;60.50;;;;;;5011485;28;114243;-78
2023/09/19 07:07:56;;;;;;;9.13;8.23;;;21.30;61.10;;;;;;5027869;28;114963;-79
2023/09/19 07:10:27;;;;;;;7.10;5.60;;;21.30;60.40;;;;;;5027761;28;114579;-79
2023/09/19 07:13:00;;;;;;;9.55;8.55;;;21.30;60.90;;;;;;5027198;28;114366;-78
2023/09/19 07:15:29;;;;;;;8.98;6.88;;;21.30;60.20;;;;;;4993534;28;114776;-78
2023/09/19 07:17:56;;;;;;;9.93;8.70;;;21.30;60.70;;;;;;5026670;28;115572;-77
2023/09/19 07:20:26;;;;;;;9.93;7.78;;;21.30;60.00;;;;;;5027242;28;114587;-78
2023/09/19 07:22:59;;;;;;;9.13;7.22;;;21.30;59.90;;;;;;5028573;28;114246;-78
2023/09/19 07:25:29;;;;;;;9.65;7.93;;;21.40;60.00;;;;;;5028253;28;114095;-79
2023/09/19 07:27:59;;;;;;;6.85;4.03;;;21.30;60.00;;;;;;5027343;28;114942;-79
2023/09/19 07:30:28;;;;;;;7.70;6.15;;;21.30;60.60;;;;;;5027568;28;115921;-78
2023/09/19 07:32:55;;;;;;;7.18;4.05;;;21.20;60.40;;;;;;5011052;28;114332;-78
2023/09/19 07:35:22;;;;;;;8.82;6.15;;;21.20;61.40;;;;;;5030109;28;114107;-79
2023/09/19 07:37:49;;;;;;;8.57;6.07;;;21.20;60.70;;;;;;5029377;27;114230;-78
2023/09/19 07:40:19;;;;;;;7.60;6.68;;;21.10;60.80;;;;;;5027404;28;115143;-78
2023/09/19 07:42:46;;;;;;;8.98;5.25;;;21.10;60.50;;;;;;5009617;28;114504;-78
2023/09/19 07:45:14;;;;;;;6.25;4.82;;;21.20;60.90;;;;;;5027787;28;114224;-77
2023/09/19 07:47:48;;;;;;;6.20;4.43;;;21.10;60.90;;;;;;5027458;28;114865;-78
2023/09/19 07:50:19;;;;;;;5.35;3.65;;;21.20;61.00;;;;;;5029875;28;114861;-78
2023/09/19 07:52:47;;;;;;;9.02;4.13;;;21.20;61.20;;;;;;4998097;28;114223;-79
2023/09/19 07:55:19;;;;;;;6.32;3.75;;;21.20;61.10;;;;;;5010541;28;114307;-77
2023/09/19 07:57:46;;;;;;;4.80;3.80;;;21.10;61.50;;;;;;5009708;28;114980;-77
2023/09/19 08:00:14;;;;;;;6.47;5.05;;;21.10;61.40;;;;;;5027242;28;114607;-77
2023/09/19 08:02:41;;;;;;;6.68;4.20;;;21.10;61.20;;;;;;4993173;28;114182;-78
2023/09/19 08:05:12;;;;;;;6.20;4.15;;;21.20;61.30;;;;;;4993831;28;114252;-78
2023/09/19 08:07:40;;;;;;;5.35;2.78;;;21.20;61.20;;;;;;5026433;28;114944;-78
2023/09/19 08:10:08;;;;;;;6.70;4.80;;;21.20;61.90;;;;;;5008856;28;114765;-78
2023/09/19 08:12:35;;;;;;;6.57;4.40;;;21.20;60.70;;;;;;4993070;28;114291;-79
2023/09/19 08:15:07;;;;;;;4.93;3.42;;;21.10;61.00;;;;;;5028018;28;114367;-79
2023/09/19 08:17:35;;;;;;;7.38;4.80;;;21.10;61.20;;;;;;5026302;28;115083;-79
2023/09/19 08:20:05;;;;;;;7.90;4.05;;;21.10;60.80;;;;;;5008635;28;114629;-77
2023/09/19 08:22:32;;;;;;;6.00;3.65;;;21.20;61.10;;;;;;5008989;28;114300;-78
2023/09/19 08:24:59;;;;;;;5.50;3.20;;;21.30;61.30;;;;;;5010211;28;114407;-79
2023/09/19 08:27:29;;;;;;;5.55;3.80;;;21.30;61.60;;;;;;5026745;28;115571;-80
2023/09/19 08:29:56;;;;;;;7.50;3.60;;;21.20;61.40;;;;;;4991286;28;114832;-78
2023/09/19 08:32:25;;;;;;;5.50;3.55;;;21.10;61.40;;;;;;5009315;28;114449;-78
2023/09/19 08:34:53;;;;;;;6.38;4.20;;;21.20;61.30;;;;;;5026972;28;114240;-76
2023/09/19 08:37:23;;;;;;;6.47;3.92;;;21.20;61.30;;;;;;5008759;28;114894;-79
2023/09/19 08:39:50;;;;;;;5.90;4.03;;;21.20;61.60;;;;;;5026330;28;114637;-77
2023/09/19 08:42:21;;;;;;;6.05;3.90;;;21.10;60.90;;;;;;5027273;28;114287;-76
2023/09/19 08:44:48;;;;;;;4.95;3.10;;;21.10;61.40;;;;;;4992761;28;114308;-77
2023/09/19 08:47:16;;;;;;;6.30;3.85;;;21.10;61.60;;;;;;5025892;28;115469;-77
2023/09/19 08:50:05;;;;;;;6.00;3.67;;;21.10;61.10;;;;;;5008237;28;114593;-79
2023/09/19 08:52:34;;;;;;;6.15;3.50;;;21.10;61.30;;;;;;5009323;28;114296;-76
2023/09/19 08:55:09;;;;;;;6.22;3.72;;;21.00;60.90;;;;;;5009103;28;114429;-78
2023/09/19 08:57:41;;;;;;;6.20;3.58;;;21.10;61.30;;;;;;5008433;28;115074;-79
2023/09/19 09:00:12;;;;;;;5.97;2.97;;;21.20;61.00;;;;;;4991971;28;115432;-79
2023/09/19 09:02:42;;;;;;;5.63;3.40;;;21.20;61.30;;;;;;5009637;28;113960;-79
2023/09/19 09:05:11;;;;;;;5.93;3.97;;;21.30;60.60;;;;;;5009102;28;114166;-78
2023/09/19 09:07:44;;;;;;;4.82;4.13;;;21.30;60.50;;;;;;4991665;28;114846;-77
2023/09/19 09:10:35;;;;;;;4.45;3.33;;;21.30;60.90;;;;;;4994813;28;114879;-77
2023/09/19 09:13:06;;;;;;;7.20;3.45;;;21.30;60.80;;;;;;5008993;28;114384;-77
2023/09/19 09:15:35;;;;;;;6.10;3.40;;;21.30;61.00;;;;;;5009470;28;114540;-78
2023/09/19 09:18:03;;;;;;;5.07;3.38;;;21.30;61.10;;;;;;5007413;28;115353;-77
2023/09/19 09:20:30;;;;;;;5.28;3.72;;;21.30;60.80;;;;;;4991102;28;114819;-78
2023/09/19 09:23:04;;;;;;;5.80;3.50;;;21.30;60.30;;;;;;5026022;28;114154;-78
2023/09/19 09:25:54;;;;;;;5.43;3.20;;;21.30;60.40;;;;;;5026331;28;114396;-77
2023/09/19 09:28:23;;;;;;;5.50;3.47;;;21.30;60.80;;;;;;5025274;28;114956;-79
2023/09/19 09:30:53;;;;;;;4.85;3.22;;;21.30;61.00;;;;;;5007911;28;114587;-78
2023/09/19 09:33:22;;;;;;;5.40;3.40;;;21.30;61.20;;;;;;5008678;28;114347;-78
2023/09/19 09:36:00;;;;;;;6.20;3.40;;;21.20;60.80;;;;;;5008038;28;114378;-79
2023/09/19 09:38:31;;;;;;;4.85;3.22;;;21.30;60.80;;;;;;5007308;28;114908;-78
2023/09/19 09:41:09;;;;;;;4.93;3.13;;;21.30;60.80;;;;;;5025417;28;115114;-77
2023/09/19 09:43:38;;;;;;;6.53;3.55;;;21.30;60.50;;;;;;5009260;28;114091;-79
2023/09/19 09:49:18;;;;;;;4.55;3.03;;;21.30;60.30;;;;;;5024502;28;116724;-78
2023/09/19 09:51:59;;;;;;;5.30;3.83;;;21.30;61.00;;;;;;5009861;28;114604;-78
2023/09/19 09:54:33;;;;;;;5.28;3.33;;;21.30;60.60;;;;;;5025575;28;114066;-79
2023/09/19 09:57:13;;;;;;;5.32;3.20;;;21.30;60.90;;;;;;5008939;28;114416;-80
2023/09/19 09:59:47;;;;;;;4.70;2.78;;;21.30;60.60;;;;;;5024781;28;116247;-78
2023/09/19 10:02:20;;;;;;;5.70;3.30;;;21.30;61.00;;;;;;5010183;28;114898;-78
2023/09/19 10:07:50;;;;;;;4.13;3.05;;;21.20;60.70;;;;;;4973175;28;114515;-79
2023/09/19 10:10:38;;;;;;;6.65;3.90;;;21.10;60.80;;;;;;5010366;28;114925;-79
2023/09/19 10:13:07;;;;;;;5.50;3.53;;;21.20;61.30;;;;;;5011745;28;114591;-78
2023/09/19 10:15:37;;;;;;;5.55;3.85;;;21.20;60.80;;;;;;5010133;28;114577;-78
2023/09/19 10:18:05;;;;;;;5.90;4.25;;;21.20;61.40;;;;;;4994061;28;114577;-77
2023/09/19 10:23:00;;;;;;;5.45;4.13;;;21.30;60.70;;;;;;5010279;28;114621;-78
2023/09/19 10:25:30;;;;;;;8.15;4.30;;;21.30;60.80;;;;;;5028999;28;114356;-78
2023/09/19 10:28:02;;;;;;;6.40;3.67;;;21.40;60.40;;;;;;4995094;28;114158;-78
2023/09/19 10:30:31;;;;;;;6.30;3.83;;;21.40;60.60;;;;;;5028034;28;115494;-78
2023/09/19 10:33:03;;;;;;;5.38;3.47;;;21.40;60.50;;;;;;4992209;28;114764;-78
2023/09/19 10:35:32;;;;;;;5.13;3.63;;;21.50;61.10;;;;;;5028815;28;114159;-78
2023/09/19 10:38:02;;;;;;;9.80;5.10;;;21.50;60.20;;;;;;5029134;28;114324;-77
2023/09/19 10:40:33;;;;;;;5.60;3.60;;;21.50;61.10;;;;;;5027574;28;114929;-78
2023/09/19 10:43:06;;;;;;;5.35;3.63;;;21.50;61.10;;;;;;5026735;28;115392;-77
2023/09/19 10:45:34;;;;;;;5.75;3.30;;;21.50;61.10;;;;;;5010762;28;114227;-78
2023/09/19 10:48:05;;;;;;;6.05;3.78;;;21.50;60.80;;;;;;5028720;28;114408;-78
2023/09/19 10:50:35;;;;;;;6.60;4.35;;;21.50;60.70;;;;;;5010488;28;114881;-77
2023/09/19 10:53:04;;;;;;;5.22;3.40;;;21.50;60.80;;;;;;5010061;28;114815;-78
2023/09/19 10:55:37;;;;;;;6.18;3.60;;;21.60;61.20;;;;;;4995630;28;114416;-76
2023/09/19 10:58:14;;;;;;;6.53;3.15;;;21.60;61.20;;;;;;5011669;28;114448;-78
2023/09/19 11:00:55;;;;;;;5.85;3.88;;;21.60;61.20;;;;;;5012959;28;114991;-79
2023/09/19 11:03:23;;;;;;;7.03;3.35;;;21.60;60.10;;;;;;5009513;28;115986;-78
2023/09/19 11:06:13;;;;;;;5.70;3.40;;;21.50;60.50;;;;;;5010106;28;114475;-78
2023/09/19 11:11:45;;;;;;;5.22;2.63;;;21.60;60.70;;;;;;5011734;28;115420;-78
2023/09/19 11:14:30;;;;;;;5.70;3.25;;;21.60;60.90;;;;;;5009625;28;114614;-78
2023/09/19 11:17:32;;;;;;;4.20;2.90;;;21.60;60.80;;;;;;5028489;28;114151;-78
2023/09/19 11:22:50;;;;;;;8.95;2.67;;;21.60;60.90;;;;;;5027406;28;115103;-77
2023/09/19 11:25:30;;;;;;;5.25;2.42;;;21.70;60.50;;;;;;5009773;28;114636;-77
2023/09/19 11:28:08;;;;;;;5.20;2.80;;;21.70;60.80;;;;;;5028029;28;114420;-79
2023/09/19 11:30:40;;;;;;;4.93;2.97;;;21.70;60.80;;;;;;5028464;28;114320;-78
2023/09/19 11:33:23;;;;;;;4.55;2.42;;;21.70;61.20;;;;;;5008850;28;115539;-80
2023/09/19 11:36:00;;;;;;;4.70;3.17;;;21.80;60.70;;;;;;5027061;28;114621;-77
2023/09/19 11:38:45;;;;;;;4.10;2.63;;;21.70;60.30;;;;;;5028032;28;114217;-78
2023/09/19 11:41:21;;;;;;;4.40;2.70;;;21.80;60.10;;;;;;5009775;28;114586;-79
2023/09/19 11:43:50;;;;;;;4.18;2.55;;;21.80;59.90;;;;;;5026889;28;115006;-78
2023/09/19 11:46:21;;;;;;;4.00;2.65;;;21.80;60.40;;;;;;5026896;28;115224;-79
2023/09/19 11:48:49;;;;;;;4.47;2.50;;;21.80;60.20;;;;;;5027902;28;114300;-78
2023/09/19 11:51:29;;;;;;;4.53;2.90;;;21.80;60.10;;;;;;5028217;28;114159;-77
2023/09/19 11:54:03;;;;;;;5.00;3.45;;;21.80;60.00;;;;;;5026789;28;114971;-78
2023/09/19 11:56:31;;;;;;;4.93;2.97;;;21.90;60.20;;;;;;5026519;28;114511;-77
2023/09/19 11:58:59;;;;;;;4.47;2.67;;;22.00;59.80;;;;;;5009504;28;114363;-78
2023/09/19 12:01:32;;;;;;;4.47;2.90;;;22.00;60.40;;;;;;5009889;28;114346;-78
2023/09/19 12:04:04;;;;;;;4.78;2.60;;;22.10;59.60;;;;;;5025655;28;115415;-79
2023/09/19 12:06:35;;;;;;;6.53;2.65;;;22.10;59.60;;;;;;5026584;28;114868;-78
2023/09/19 12:09:06;;;;;;;4.82;2.40;;;22.20;59.20;;;;;;5026660;28;114204;-78
2023/09/19 12:11:35;;;;;;;4.50;2.58;;;22.30;59.50;;;;;;4994513;28;114443;-79
2023/09/19 12:14:03;;;;;;;5.25;2.72;;;22.30;58.60;;;;;;4975368;28;115155;-78
2023/09/19 12:16:33;;;;;;;5.53;2.95;;;22.30;58.60;;;;;;5009600;28;114910;-78
2023/09/19 12:19:20;;;;;;;3.83;2.38;;;22.40;58.20;;;;;;4993193;28;114431;-78
2023/09/19 12:21:54;;;;;;;3.80;2.30;;;22.50;58.10;;;;;;4976198;28;114415;-80
2023/09/19 12:24:21;;;;;;;4.68;2.70;;;22.50;58.20;;;;;;5025502;27;115196;-78
2023/09/19 12:26:52;;;;;;;5.93;2.70;;;22.50;57.70;;;;;;4991873;28;114525;-80
2023/09/19 12:29:20;;;;;;;3.97;2.50;;;22.50;57.60;;;;;;5026681;28;114050;-77
2023/09/19 12:31:50;;;;;;;4.35;2.50;;;22.50;57.20;;;;;;5027066;28;114281;-77
2023/09/19 12:34:22;;;;;;;5.40;2.70;;;22.70;57.10;;;;;;5026062;28;115054;-78
2023/09/19 12:37:03;;;;;;;5.68;2.80;;;22.70;57.70;;;;;;5008136;28;115307;-78
2023/09/19 12:39:31;;;;;;;6.63;3.33;;;22.80;56.80;;;;;;5008626;28;114094;-79
2023/09/19 12:41:58;;;;;;;7.93;3.25;;;22.80;56.50;;;;;;5027515;28;114059;-79
2023/09/19 12:44:25;;;;;;;4.72;2.78;;;22.80;56.40;;;;;;5026047;28;115013;-78
2023/09/19 12:46:54;;;;;;;6.40;3.47;;;22.80;55.90;;;;;;4990972;28;114763;-78
2023/09/19 12:49:22;;;;;;;3.97;2.25;;;22.80;56.00;;;;;;5026358;28;114530;-79
2023/09/19 12:51:49;;;;;;;6.25;2.70;;;22.80;55.60;;;;;;5026384;28;114172;-78
2023/09/19 12:54:16;;;;;;;4.13;2.58;;;22.80;55.60;;;;;;4974709;28;114964;-76
2023/09/19 12:56:44;;;;;;;5.03;2.92;;;22.80;55.40;;;;;;5007327;28;115125;-78